»·PEaware :: ASA3443 KSLC-KPDX

ASA3443 :: KSLC-KPDX

FLIGHT INFORMATION

Flight Status: Arrived
Operator:
Alaska Airlines
More flights by this operator :: More flights under this callsign
Pilot: Andrew C. (28419)
Aircraft: BOEING 737-800
(B738)
More flights by this aircraft type
Origin: KSLC Salt Lake City Intl
United States
Destination: KPDX Portland Intl
United States
More flights between these airports :: More routes between these airports
Route: CGULL1 TWF BROPH JOTBA HHOOD4
File this flight plan on PilotEdge
Remarks: RMK / SIMBRIEF
Altitude:
(Current/Filed)
36,000ft
Speed:
(Current/Filed)
454kts
Departed: 16-Sep-20 06:57 PM
Arrived: 16-Sep-20 08:31 PM
Distance/Time
Traveled:
546nm/1:34
Distance/Time
To Go:
Arrived

Flight Plot

Page will automatically refresh every two minutes.

Flight plan parsing failed; only flown route is shown


Map Options




Map Legend


Flown Route
Filed Route
Departure Airport
Arrival Airport
Navaid (VOR, NDB)
Fix

Horizontal Profiles

Position Reports

Time Latitude Longitude Heading Altitude Ground
Speed
16-Sep-20 18:28 40.785371 -111.977544 252 4238ft 0kts
16-Sep-20 18:29 40.785371 -111.977544 252 4238ft 0kts
16-Sep-20 18:30 40.785371 -111.977544 252 4237ft 0kts
16-Sep-20 18:31 40.785371 -111.977544 252 4237ft 0kts
16-Sep-20 18:32 40.785371 -111.977544 252 4237ft 0kts
16-Sep-20 18:33 40.785371 -111.977544 252 4237ft 0kts
16-Sep-20 18:34 40.785371 -111.977544 252 4237ft 0kts
16-Sep-20 18:35 40.785371 -111.977544 252 4237ft 0kts
16-Sep-20 18:36 40.785371 -111.977544 252 4237ft 0kts
16-Sep-20 18:37 40.785371 -111.977544 252 4237ft 0kts
16-Sep-20 18:38 40.785371 -111.977544 252 4237ft 0kts
16-Sep-20 18:39 40.785371 -111.977544 252 4237ft 0kts
16-Sep-20 18:41 40.785372 -111.977544 252 4237ft 0kts
16-Sep-20 18:42 40.785372 -111.977544 252 4237ft 0kts
16-Sep-20 18:43 40.785372 -111.977544 252 4237ft 0kts
16-Sep-20 18:44 40.785372 -111.977544 252 4237ft 0kts
16-Sep-20 18:45 40.785372 -111.977544 252 4237ft 0kts
16-Sep-20 18:46 40.785372 -111.977544 252 4237ft 0kts
16-Sep-20 18:47 40.785437 -111.977274 252 4237ft 2kts
16-Sep-20 18:48 40.785343 -111.976564 335 4237ft 2kts
16-Sep-20 18:49 40.785190 -111.976520 355 4237ft 0kts
16-Sep-20 18:50 40.785190 -111.976520 355 4237ft 0kts
16-Sep-20 18:51 40.785672 -111.976583 353 4237ft 7kts
16-Sep-20 18:52 40.788977 -111.977001 354 4237ft 17kts
16-Sep-20 18:53 40.795925 -111.977820 356 4237ft 32kts
16-Sep-20 18:53 40.803147 -111.978348 8 4237ft 29kts
16-Sep-20 18:55 40.807045 -111.978560 16 4237ft 0kts
16-Sep-20 18:56 40.806727 -111.976834 173 4237ft 11kts
16-Sep-20 18:57 40.771725 -111.973876 193 4666ft 192kts
16-Sep-20 18:57 40.758955 -112.022890 304 6466ft 206kts
16-Sep-20 18:59 40.805931 -112.104334 306 8404ft 271kts
16-Sep-20 19:00 40.852740 -112.187465 306 9982ft 289kts
16-Sep-20 19:00 40.892503 -112.257817 306 9985ft 288kts
16-Sep-20 19:01 40.946492 -112.335717 328 10878ft 300kts
16-Sep-20 19:02 41.027396 -112.395225 330 12072ft 366kts
16-Sep-20 19:03 41.115649 -112.463678 326 14686ft 378kts
16-Sep-20 19:04 41.204261 -112.544413 321 17090ft 392kts
16-Sep-20 19:05 41.290233 -112.637628 312 19010ft 410kts
16-Sep-20 19:06 41.364632 -112.746133 310 22074ft 387kts
16-Sep-20 19:07 41.436209 -112.852871 309 24298ft 390kts
16-Sep-20 19:08 41.510329 -112.966711 309 25072ft 428kts
16-Sep-20 19:09 41.590723 -113.090031 309 26572ft 439kts
16-Sep-20 19:10 41.671510 -113.214359 309 28009ft 447kts
16-Sep-20 19:11 41.753036 -113.340289 309 29601ft 446kts
16-Sep-20 19:12 41.833922 -113.465771 308 31502ft 436kts
16-Sep-20 19:13 41.912612 -113.588382 308 33175ft 428kts
16-Sep-20 19:14 41.989350 -113.708498 307 34894ft 415kts
16-Sep-20 19:15 42.064645 -113.826966 306 36115ft 411kts
16-Sep-20 19:16 42.140080 -113.945991 306 36154ft 420kts
16-Sep-20 19:17 42.216020 -114.067243 306 36137ft 418kts
16-Sep-20 19:18 42.291074 -114.187271 306 36155ft 420kts
16-Sep-20 19:19 42.367081 -114.308315 306 36153ft 421kts
16-Sep-20 19:20 42.443223 -114.429808 307 36159ft 421kts
16-Sep-20 19:21 42.519416 -114.551835 307 36152ft 423kts
16-Sep-20 19:22 42.595978 -114.674312 306 36160ft 425kts
16-Sep-20 19:23 42.672425 -114.796814 306 36144ft 424kts
16-Sep-20 19:24 42.744162 -114.925640 300 36146ft 423kts
16-Sep-20 19:25 42.808486 -115.059699 299 36122ft 423kts
16-Sep-20 19:26 42.872569 -115.194628 299 36085ft 424kts
16-Sep-20 19:27 42.936931 -115.330889 299 36074ft 425kts
16-Sep-20 19:28 43.000849 -115.467437 299 36024ft 426kts
16-Sep-20 19:29 43.064768 -115.603530 299 36072ft 426kts
16-Sep-20 19:30 43.128614 -115.740496 299 36084ft 426kts
16-Sep-20 19:31 43.192191 -115.877566 298 36126ft 427kts
16-Sep-20 19:32 43.255928 -116.015815 298 36102ft 428kts
16-Sep-20 19:33 43.319646 -116.154401 299 36067ft 429kts
16-Sep-20 19:34 43.383290 -116.293683 299 36010ft 430kts
16-Sep-20 19:35 43.446792 -116.433102 298 36076ft 430kts
16-Sep-20 19:36 43.510079 -116.572681 298 36080ft 429kts
16-Sep-20 19:37 43.573409 -116.713093 298 36072ft 430kts
16-Sep-20 19:38 43.636422 -116.853605 298 36073ft 430kts
16-Sep-20 19:39 43.699151 -116.994106 298 36084ft 430kts
16-Sep-20 19:40 43.761878 -117.135249 298 36078ft 431kts
16-Sep-20 19:41 43.824315 -117.276423 298 36066ft 431kts
16-Sep-20 19:42 43.887098 -117.419083 298 36066ft 432kts
16-Sep-20 19:43 43.949605 -117.561782 298 36070ft 433kts
16-Sep-20 19:44 44.012049 -117.705099 297 36069ft 433kts
16-Sep-20 19:45 44.074220 -117.848607 297 36066ft 433kts
16-Sep-20 19:46 44.135783 -117.991345 297 36087ft 433kts
16-Sep-20 19:47 44.197511 -118.135142 297 36103ft 434kts
16-Sep-20 19:48 44.259313 -118.279809 297 36105ft 434kts
16-Sep-20 19:49 44.321170 -118.425349 297 36103ft 435kts
16-Sep-20 19:50 44.382732 -118.570893 296 36104ft 436kts
16-Sep-20 19:51 44.443411 -118.715161 296 36096ft 436kts
16-Sep-20 19:52 44.504864 -118.862051 296 36110ft 438kts
16-Sep-20 19:53 44.566207 -119.009320 295 36110ft 438kts
16-Sep-20 19:54 44.627434 -119.157121 295 36106ft 438kts
16-Sep-20 19:55 44.688576 -119.305468 295 36101ft 439kts
16-Sep-20 19:56 44.749543 -119.454187 295 36108ft 439kts
16-Sep-20 19:57 44.810076 -119.602669 295 36105ft 438kts
16-Sep-20 19:58 44.870440 -119.751574 294 35767ft 431kts
16-Sep-20 19:59 44.929485 -119.898485 294 32621ft 438kts
16-Sep-20 20:00 44.988728 -120.045979 293 30331ft 422kts
16-Sep-20 20:01 45.040565 -120.175932 294 28551ft 431kts
16-Sep-20 20:02 45.097108 -120.319165 293 26695ft 403kts
16-Sep-20 20:03 45.153024 -120.461594 294 24755ft 408kts
16-Sep-20 20:04 45.204825 -120.602876 290 24002ft 411kts
16-Sep-20 20:05 45.256928 -120.748112 292 24044ft 410kts
16-Sep-20 20:06 45.310626 -120.891236 292 24047ft 412kts
16-Sep-20 20:07 45.365149 -121.034720 292 24058ft 412kts
16-Sep-20 20:08 45.418217 -121.178612 287 23736ft 401kts
16-Sep-20 20:09 45.453579 -121.331935 281 19519ft 421kts
16-Sep-20 20:10 45.485308 -121.490038 281 16692ft 393kts
16-Sep-20 20:11 45.513200 -121.631103 281 15318ft 352kts
16-Sep-20 20:12 45.531390 -121.758002 267 14712ft 297kts
16-Sep-20 20:13 45.535473 -121.876111 268 13602ft 291kts
16-Sep-20 20:14 45.546441 -121.989014 282 12389ft 289kts
16-Sep-20 20:15 45.572452 -122.097972 283 11030ft 287kts
16-Sep-20 20:16 45.593973 -122.207522 283 9848ft 276kts
16-Sep-20 20:17 45.613734 -122.313815 284 8626ft 270kts
16-Sep-20 20:18 45.633641 -122.416228 285 7415ft 265kts
16-Sep-20 20:19 45.660588 -122.512936 297 6465ft 251kts
16-Sep-20 20:20 45.692202 -122.600057 296 5540ft 236kts
16-Sep-20 20:21 45.721241 -122.680363 296 4940ft 221kts
16-Sep-20 20:22 45.750385 -122.761050 295 4997ft 223kts
16-Sep-20 20:23 45.771386 -122.843443 249 4835ft 214kts
16-Sep-20 20:24 45.722298 -122.880145 173 4150ft 182kts
16-Sep-20 20:25 45.679806 -122.837902 125 2965ft 186kts
16-Sep-20 20:26 45.653240 -122.770939 119 2402ft 187kts
16-Sep-20 20:27 45.627607 -122.704846 118 1379ft 174kts
16-Sep-20 20:28 45.607250 -122.652350 118 550ft 143kts
16-Sep-20 20:29 45.588891 -122.605348 118 39ft 78kts
16-Sep-20 20:30 45.587902 -122.597461 300 39ft 10kts
16-Sep-20 20:31 45.590496 -122.601332 30 39ft 14kts
16-Sep-20 20:32 45.590592 -122.597281 120 39ft 9kts
16-Sep-20 20:33 45.589920 -122.597287 206 39ft 1kts
16-Sep-20 20:34 45.589861 -122.597331 207 39ft 0kts

Navigation Log

Ident Type
Flight plan parsing failed, navigation log unavailable